Time;durP1;ratioP1;P1;durP2;ratioP2;P2;SDS_P1;SDS_P2;PMS_P1;PMS_P2;Temp;Humidity;BMP_temperature;BMP_pressure;BME280_temperature;BME280_humidity;BME280_pressure;Samples;Min_cycle;Max_cycle;Signal;HPM_P1;HPM_P2
2022/04/28 00:00:04;;;;;;;5.73;4.10;;;;;;;;;;7373596;19;20221;-77
2022/04/28 00:02:30;;;;;;;4.27;3.80;;;;;;;;;;7377733;19;21102;-77
2022/04/28 00:04:56;;;;;;;4.73;3.90;;;;;;;;;;7367933;19;20153;-77
2022/04/28 00:07:22;;;;;;;5.07;4.23;;;;;;;;;;7368642;19;20121;-77
2022/04/28 00:09:48;;;;;;;4.23;3.73;;;;;;;;;;7373887;19;20474;-77
2022/04/28 00:12:15;;;;;;;4.73;4.27;;;;;;;;;;7380450;19;20113;-77
2022/04/28 00:14:42;;;;;;;5.37;4.53;;;;;;;;;;7376682;19;20777;-77
2022/04/28 00:17:08;;;;;;;4.70;3.80;;;;;;;;;;7378153;19;20588;-77
2022/04/28 00:19:34;;;;;;;5.47;4.37;;;;;;;;;;7376834;19;20137;-77
2022/04/28 00:22:00;;;;;;;4.83;4.27;;;;;;;;;;7368563;19;20125;-77
2022/04/28 00:24:26;;;;;;;5.83;4.03;;;;;;;;;;7377962;19;20440;-77
2022/04/28 00:26:52;;;;;;;5.40;3.97;;;;;;;;;;7377787;19;20129;-77
2022/04/28 00:29:18;;;;;;;5.53;4.17;;;;;;;;;;7375006;19;20197;-77
2022/04/28 00:31:44;;;;;;;5.00;4.50;;;;;;;;;;7371699;19;20133;-77
2022/04/28 00:34:11;;;;;;;5.40;4.27;;;;;;;;;;7376766;19;20165;-77
2022/04/28 00:36:37;;;;;;;5.30;4.43;;;;;;;;;;7386242;19;20451;-77
2022/04/28 00:39:03;;;;;;;8.87;4.80;;;;;;;;;;7376508;19;20600;-76
2022/04/28 00:41:29;;;;;;;5.30;4.80;;;;;;;;;;7382212;19;20136;-77
2022/04/28 00:43:55;;;;;;;6.77;4.73;;;;;;;;;;7372631;19;20140;-77
2022/04/28 00:46:22;;;;;;;5.70;4.83;;;;;;;;;;7373638;19;20117;-77
2022/04/28 00:51:33;;;;;;;5.73;4.83;;;;;;;;;;7376491;19;20657;-77
2022/04/28 00:54:00;;;;;;;5.23;4.73;;;;;;;;;;7383243;19;20125;-77
2022/04/28 00:56:30;;;;;;;5.07;4.43;;;;;;;;;;7382983;19;20614;-77
2022/04/28 00:58:56;;;;;;;6.20;4.97;;;;;;;;;;7381023;19;20124;-77
2022/04/28 01:01:22;;;;;;;6.23;4.97;;;;;;;;;;7374689;19;20117;-77
2022/04/28 01:03:49;;;;;;;6.83;4.90;;;;;;;;;;7375226;19;20354;-77
2022/04/28 01:06:15;;;;;;;7.13;5.20;;;;;;;;;;7372248;19;20149;-77
2022/04/28 01:08:42;;;;;;;5.73;4.43;;;;;;;;;;7373548;19;20632;-77
2022/04/28 01:11:08;;;;;;;6.00;4.90;;;;;;;;;;7378501;19;20133;-77
2022/04/28 01:13:35;;;;;;;6.03;5.33;;;;;;;;;;7379002;19;20204;-77
2022/04/28 01:16:01;;;;;;;7.30;5.20;;;;;;;;;;7372552;19;20165;-77
2022/04/28 01:18:27;;;;;;;6.57;5.13;;;;;;;;;;7383063;19;20141;-77
2022/04/28 01:20:53;;;;;;;7.80;6.10;;;;;;;;;;7376991;19;20128;-77
2022/04/28 01:23:19;;;;;;;6.17;5.57;;;;;;;;;;7365204;19;20445;-77
2022/04/28 01:25:45;;;;;;;9.97;6.33;;;;;;;;;;7369513;19;20604;-77
2022/04/28 01:28:13;;;;;;;7.00;6.33;;;;;;;;;;7367773;19;20117;-77
2022/04/28 01:30:39;;;;;;;8.93;7.30;;;;;;;;;;7371172;19;20125;-77
2022/04/28 01:33:05;;;;;;;7.33;6.53;;;;;;;;;;7373482;19;20148;-77
2022/04/28 01:35:31;;;;;;;8.07;7.27;;;;;;;;;;7376335;19;20599;-77
2022/04/28 01:37:57;;;;;;;8.20;7.40;;;;;;;;;;7375310;19;20121;-77
2022/04/28 01:40:23;;;;;;;8.40;6.93;;;;;;;;;;7379127;19;20117;-77
2022/04/28 01:42:50;;;;;;;9.77;7.77;;;;;;;;;;7383517;19;20144;-77
2022/04/28 01:45:16;;;;;;;8.63;7.83;;;;;;;;;;7376894;19;20137;-77
2022/04/28 01:47:42;;;;;;;9.00;8.13;;;;;;;;;;7369830;19;20121;-77
2022/04/28 01:50:10;;;;;;;9.00;8.07;;;;;;;;;;7376395;19;20137;-77
2022/04/28 01:55:21;;;;;;;9.87;7.60;;;;;;;;;;7376728;19;20140;-77
2022/04/28 01:57:48;;;;;;;8.70;7.90;;;;;;;;;;7375437;19;20149;-77
2022/04/28 02:00:14;;;;;;;10.13;8.33;;;;;;;;;;7377137;19;20593;-77
2022/04/28 02:02:40;;;;;;;8.83;8.03;;;;;;;;;;7375361;19;20674;-77
2022/04/28 02:05:07;;;;;;;9.87;8.97;;;;;;;;;;7374847;19;20133;-77
2022/04/28 02:07:33;;;;;;;10.23;8.87;;;;;;;;;;7377641;19;20117;-77
2022/04/28 02:10:00;;;;;;;9.83;8.93;;;;;;;;;;7374771;19;20141;-77
2022/04/28 02:12:26;;;;;;;10.20;8.87;;;;;;;;;;7369971;19;20449;-77
2022/04/28 02:14:52;;;;;;;9.90;9.00;;;;;;;;;;7381149;19;20655;-77
2022/04/28 02:17:23;;;;;;;9.53;8.53;;;;;;;;;;7372688;19;20133;-77
2022/04/28 02:19:49;;;;;;;10.07;9.10;;;;;;;;;;7373980;19;20117;-77
2022/04/28 02:22:15;;;;;;;10.60;9.60;;;;;;;;;;7372021;19;20239;-77
2022/04/28 02:24:41;;;;;;;10.83;9.77;;;;;;;;;;7369324;19;20674;-77
2022/04/28 02:27:07;;;;;;;10.53;9.53;;;;;;;;;;7365641;19;20135;-77
2022/04/28 02:29:33;;;;;;;9.83;8.93;;;;;;;;;;7392815;19;20129;-78
2022/04/28 02:31:59;;;;;;;10.90;9.53;;;;;;;;;;7402583;19;20126;-78
2022/04/28 02:34:25;;;;;;;10.60;9.60;;;;;;;;;;7402997;19;20121;-77
2022/04/28 02:36:52;;;;;;;9.73;8.83;;;;;;;;;;7408245;19;20154;-78
2022/04/28 02:39:18;;;;;;;10.77;9.67;;;;;;;;;;7392076;19;20133;-77
2022/04/28 02:41:45;;;;;;;10.50;9.40;;;;;;;;;;7365478;19;20166;-77
2022/04/28 02:44:14;;;;;;;11.27;10.07;;;;;;;;;;7366365;19;20168;-77
2022/04/28 02:46:45;;;;;;;11.53;10.03;;;;;;;;;;7377645;19;20535;-77
2022/04/28 02:49:11;;;;;;;12.23;11.03;;;;;;;;;;7370131;19;20132;-76
2022/04/28 02:51:37;;;;;;;11.60;10.40;;;;;;;;;;7373990;19;20240;-76
2022/04/28 02:54:03;;;;;;;11.80;10.63;;;;;;;;;;7372067;19;20169;-77
2022/04/28 02:56:29;;;;;;;11.93;10.83;;;;;;;;;;7373512;19;20168;-76
2022/04/28 02:58:55;;;;;;;12.70;11.40;;;;;;;;;;7365153;19;20572;-77
2022/04/28 03:01:22;;;;;;;12.70;11.40;;;;;;;;;;7370254;19;20149;-77
2022/04/28 03:03:49;;;;;;;12.40;10.90;;;;;;;;;;7367623;19;20231;-77
2022/04/28 03:11:44;;;;;;;12.40;11.20;;;;;;;;;;7374866;19;20606;-77
2022/04/28 03:14:10;;;;;;;12.60;11.40;;;;;;;;;;7370197;19;20634;-77
2022/04/28 03:16:36;;;;;;;12.13;11.03;;;;;;;;;;7366738;19;20154;-76
2022/04/28 03:19:03;;;;;;;13.10;11.80;;;;;;;;;;7364944;19;20145;-77
2022/04/28 03:21:29;;;;;;;13.33;12.03;;;;;;;;;;7372658;19;20125;-78
2022/04/28 03:23:55;;;;;;;13.77;12.37;;;;;;;;;;7370482;19;20231;-76
2022/04/28 03:26:21;;;;;;;13.80;12.40;;;;;;;;;;7384703;19;20137;-77
2022/04/28 03:28:47;;;;;;;13.90;12.60;;;;;;;;;;7380256;19;20185;-77
2022/04/28 03:31:13;;;;;;;13.53;12.13;;;;;;;;;;7378017;19;20477;-77
2022/04/28 03:33:39;;;;;;;13.40;12.10;;;;;;;;;;7379271;19;20132;-77
2022/04/28 03:36:50;;;;;;;14.60;13.03;;;;;;;;;;7378079;19;20207;-77
2022/04/28 03:38:51;;;;;;;14.20;12.80;;;;;;;;;;7384699;19;20141;-77
2022/04/28 03:41:17;;;;;;;15.07;13.60;;;;;;;;;;7370133;19;20139;-77
2022/04/28 03:43:44;;;;;;;15.87;13.30;;;;;;;;;;7377792;19;20137;-76
2022/04/28 03:46:11;;;;;;;14.90;13.40;;;;;;;;;;7376026;19;20154;-77
2022/04/28 03:48:37;;;;;;;14.97;13.37;;;;;;;;;;7373694;19;20137;-77
2022/04/28 03:51:03;;;;;;;16.03;13.83;;;;;;;;;;7374200;19;20141;-77
2022/04/28 03:53:30;;;;;;;14.50;13.00;;;;;;;;;;7374446;19;20116;-77
2022/04/28 03:55:57;;;;;;;15.67;14.07;;;;;;;;;;7375935;19;20145;-77
2022/04/28 03:58:25;;;;;;;15.33;13.83;;;;;;;;;;7376663;19;20140;-77
2022/04/28 04:00:51;;;;;;;15.97;14.37;;;;;;;;;;7383684;19;20125;-76
2022/04/28 04:03:19;;;;;;;15.87;14.07;;;;;;;;;;7382087;19;20632;-77
2022/04/28 04:05:45;;;;;;;16.17;14.57;;;;;;;;;;7381329;19;20133;-77
2022/04/28 04:08:11;;;;;;;16.77;14.93;;;;;;;;;;7386224;19;20137;-77
2022/04/28 04:10:37;;;;;;;16.13;14.60;;;;;;;;;;7382552;19;20140;-77
2022/04/28 04:13:04;;;;;;;16.30;14.60;;;;;;;;;;7387478;19;20128;-77
2022/04/28 04:15:30;;;;;;;17.53;15.67;;;;;;;;;;7385490;19;20172;-77
2022/04/28 04:17:57;;;;;;;16.73;14.80;;;;;;;;;;7385748;19;20212;-77
2022/04/28 04:20:23;;;;;;;17.23;15.43;;;;;;;;;;7388854;19;20141;-77
2022/04/28 04:22:49;;;;;;;17.63;15.93;;;;;;;;;;7390930;19;20133;-77
2022/04/28 04:25:15;;;;;;;17.10;15.33;;;;;;;;;;7392170;19;20136;-76
2022/04/28 04:27:41;;;;;;;19.30;16.60;;;;;;;;;;7392022;19;20137;-77
2022/04/28 04:32:52;;;;;;;17.17;15.40;;;;;;;;;;7381903;19;20131;-77
2022/04/28 04:35:19;;;;;;;16.60;14.90;;;;;;;;;;7385778;19;20137;-77
2022/04/28 04:37:45;;;;;;;18.03;15.63;;;;;;;;;;7385346;19;20153;-77
2022/04/28 04:40:11;;;;;;;18.27;16.37;;;;;;;;;;7384622;19;20125;-77
2022/04/28 04:42:37;;;;;;;17.60;15.83;;;;;;;;;;7379317;19;20678;-77
2022/04/28 04:45:03;;;;;;;18.90;16.97;;;;;;;;;;7383763;19;20164;-77
2022/04/28 04:47:29;;;;;;;19.83;16.30;;;;;;;;;;7389548;19;20124;-77
2022/04/28 04:49:55;;;;;;;18.83;15.93;;;;;;;;;;7383234;19;20129;-77
2022/04/28 04:52:21;;;;;;;17.83;15.90;;;;;;;;;;7376978;19;20150;-76
2022/04/28 04:54:47;;;;;;;17.93;16.10;;;;;;;;;;7386338;19;20164;-77
2022/04/28 04:57:13;;;;;;;18.27;16.37;;;;;;;;;;7382141;19;20125;-77
2022/04/28 04:59:39;;;;;;;18.53;16.27;;;;;;;;;;7382460;19;20129;-77
2022/04/28 05:02:05;;;;;;;18.10;16.20;;;;;;;;;;7405418;19;20121;-77
2022/04/28 05:04:31;;;;;;;21.73;17.83;;;;;;;;;;7407547;19;20171;-77
2022/04/28 05:06:57;;;;;;;20.80;16.87;;;;;;;;;;7382582;19;20125;-77
2022/04/28 05:09:23;;;;;;;19.47;16.50;;;;;;;;;;7382786;19;20140;-77
2022/04/28 05:11:49;;;;;;;19.50;16.40;;;;;;;;;;7383343;19;20154;-77
2022/04/28 05:14:15;;;;;;;19.60;17.57;;;;;;;;;;7384435;19;20497;-76
2022/04/28 05:16:41;;;;;;;24.73;17.23;;;;;;;;;;7379957;19;20165;-77
2022/04/28 05:19:07;;;;;;;19.83;17.70;;;;;;;;;;7383524;19;20141;-77
2022/04/28 05:21:33;;;;;;;18.37;16.53;;;;;;;;;;7383439;19;20137;-77
2022/04/28 05:23:59;;;;;;;20.47;18.43;;;;;;;;;;7374730;19;20171;-77
2022/04/28 05:26:25;;;;;;;20.97;17.13;;;;;;;;;;7375146;19;20129;-77
2022/04/28 05:28:51;;;;;;;19.47;17.33;;;;;;;;;;7376737;19;20133;-77
2022/04/28 05:31:18;;;;;;;20.17;17.97;;;;;;;;;;7382134;19;20668;-77
2022/04/28 05:33:45;;;;;;;20.97;17.73;;;;;;;;;;7382379;19;20129;-77
2022/04/28 05:36:12;;;;;;;20.93;15.47;;;;;;;;;;7381074;19;20135;-77
2022/04/28 05:38:38;;;;;;;20.50;18.27;;;;;;;;;;7380594;19;20132;-77
2022/04/28 05:41:05;;;;;;;17.90;15.97;;;;;;;;;;7381001;19;20667;-77
2022/04/28 05:46:16;;;;;;;21.53;19.23;;;;;;;;;;7378947;19;20487;-77
2022/04/28 05:48:42;;;;;;;19.93;18.00;;;;;;;;;;7380165;19;20129;-77
2022/04/28 05:51:09;;;;;;;21.07;18.90;;;;;;;;;;7373614;19;20137;-77
2022/04/28 05:53:35;;;;;;;21.00;18.07;;;;;;;;;;7377128;19;20137;-76
2022/04/28 05:56:01;;;;;;;21.80;19.60;;;;;;;;;;7373191;19;20129;-76
2022/04/28 05:58:26;;;;;;;19.43;17.43;;;;;;;;;;7379626;19;20766;-76
2022/04/28 06:00:52;;;;;;;19.77;16.57;;;;;;;;;;7381531;19;20173;-77
2022/04/28 06:03:18;;;;;;;17.00;13.37;;;;;;;;;;7378525;19;20890;-76
2022/04/28 06:05:44;;;;;;;16.77;12.73;;;;;;;;;;7381564;19;20137;-77
2022/04/28 06:08:10;;;;;;;17.73;13.73;;;;;;;;;;7379504;19;20124;-77
2022/04/28 06:10:36;;;;;;;16.50;12.83;;;;;;;;;;7375654;19;20125;-77
2022/04/28 06:13:02;;;;;;;18.93;13.33;;;;;;;;;;7377663;19;20153;-76
2022/04/28 06:15:28;;;;;;;16.43;11.63;;;;;;;;;;7367037;19;20141;-77
2022/04/28 06:17:54;;;;;;;18.30;12.33;;;;;;;;;;7372994;19;20623;-76
2022/04/28 06:20:20;;;;;;;15.03;11.97;;;;;;;;;;7380884;19;20125;-76
2022/04/28 06:22:46;;;;;;;16.87;13.00;;;;;;;;;;7377291;19;20149;-76
2022/04/28 06:25:14;;;;;;;15.43;12.33;;;;;;;;;;7377834;19;20232;-77
2022/04/28 06:27:40;;;;;;;15.17;11.60;;;;;;;;;;7377324;19;20140;-77
2022/04/28 06:30:06;;;;;;;16.73;12.30;;;;;;;;;;7374529;19;20117;-77
2022/04/28 06:32:32;;;;;;;15.17;12.27;;;;;;;;;;7381913;19;20197;-77
2022/04/28 06:34:58;;;;;;;14.53;12.30;;;;;;;;;;7381036;19;20172;-77
2022/04/28 06:37:24;;;;;;;12.97;11.23;;;;;;;;;;7384640;19;20137;-77
2022/04/28 06:39:50;;;;;;;14.00;11.70;;;;;;;;;;7378050;19;20635;-76
2022/04/28 06:42:17;;;;;;;13.83;11.00;;;;;;;;;;7381973;19;20141;-76
2022/04/28 06:44:43;;;;;;;14.77;11.73;;;;;;;;;;7377301;19;20133;-77
2022/04/28 06:47:09;;;;;;;15.80;11.83;;;;;;;;;;7378674;19;20154;-77
2022/04/28 06:49:35;;;;;;;16.17;13.07;;;;;;;;;;7377460;19;20730;-77
2022/04/28 06:52:01;;;;;;;13.70;10.90;;;;;;;;;;7378279;19;20184;-76
2022/04/28 06:54:27;;;;;;;14.37;12.03;;;;;;;;;;7378440;19;20200;-76
2022/04/28 06:56:53;;;;;;;13.13;11.23;;;;;;;;;;7381170;19;20168;-76
2022/04/28 06:59:20;;;;;;;14.90;11.97;;;;;;;;;;7377884;19;20125;-77
2022/04/28 07:01:46;;;;;;;14.90;11.80;;;;;;;;;;7377641;19;20655;-76
2022/04/28 07:04:12;;;;;;;13.87;11.67;;;;;;;;;;7369097;19;20202;-77
2022/04/28 07:06:38;;;;;;;11.43;10.23;;;;;;;;;;7375371;19;20479;-77
2022/04/28 07:09:04;;;;;;;13.47;11.10;;;;;;;;;;7374620;19;20140;-77
2022/04/28 07:11:30;;;;;;;13.60;11.50;;;;;;;;;;7372685;19;20168;-77
2022/04/28 07:13:56;;;;;;;13.13;10.10;;;;;;;;;;7378094;19;20113;-77
2022/04/28 07:16:22;;;;;;;11.47;10.27;;;;;;;;;;7377927;19;20129;-77
2022/04/28 07:18:48;;;;;;;11.83;10.60;;;;;;;;;;7375449;19;20144;-77
2022/04/28 07:21:14;;;;;;;11.20;10.03;;;;;;;;;;7375332;19;20210;-77
2022/04/28 07:23:40;;;;;;;11.20;8.97;;;;;;;;;;7374085;19;20137;-77
2022/04/28 07:26:06;;;;;;;11.63;10.43;;;;;;;;;;7368443;19;20141;-77
2022/04/28 07:28:32;;;;;;;10.93;9.83;;;;;;;;;;7374248;19;20125;-77
2022/04/28 07:30:58;;;;;;;11.17;9.67;;;;;;;;;;7375876;19;20559;-77
2022/04/28 07:33:24;;;;;;;11.47;10.27;;;;;;;;;;7375091;19;20137;-77
2022/04/28 07:35:51;;;;;;;10.67;9.57;;;;;;;;;;7373255;19;20145;-78
2022/04/28 07:38:17;;;;;;;11.53;10.20;;;;;;;;;;7373404;19;20145;-77
2022/04/28 07:40:43;;;;;;;11.23;10.03;;;;;;;;;;7371869;19;20176;-77
2022/04/28 07:43:09;;;;;;;10.70;9.70;;;;;;;;;;7372658;19;20146;-77
2022/04/28 07:45:35;;;;;;;11.97;10.67;;;;;;;;;;7366903;19;20168;-77
2022/04/28 07:48:01;;;;;;;11.80;10.50;;;;;;;;;;7374585;19;20117;-77
2022/04/28 07:50:29;;;;;;;11.33;10.10;;;;;;;;;;7371422;19;20514;-77
2022/04/28 07:52:56;;;;;;;10.97;9.77;;;;;;;;;;7378087;19;20132;-77
2022/04/28 07:55:22;;;;;;;13.20;10.30;;;;;;;;;;7381534;19;20561;-77
2022/04/28 07:57:48;;;;;;;12.43;10.67;;;;;;;;;;7381347;19;20588;-77
2022/04/28 08:00:14;;;;;;;10.50;9.40;;;;;;;;;;7373950;19;20133;-77
2022/04/28 08:02:40;;;;;;;11.97;9.83;;;;;;;;;;7377755;19;20170;-77
2022/04/28 08:05:06;;;;;;;12.77;10.23;;;;;;;;;;7377830;19;20511;-77
2022/04/28 08:07:33;;;;;;;10.43;9.33;;;;;;;;;;7372283;19;20118;-77
2022/04/28 08:09:59;;;;;;;11.33;9.03;;;;;;;;;;7379372;19;20133;-77
2022/04/28 08:12:25;;;;;;;11.20;10.07;;;;;;;;;;7385823;19;20140;-78
2022/04/28 08:14:51;;;;;;;12.20;10.70;;;;;;;;;;7382088;19;20144;-77
2022/04/28 08:17:17;;;;;;;10.43;9.43;;;;;;;;;;7385612;19;20147;-77
2022/04/28 08:19:43;;;;;;;11.53;9.73;;;;;;;;;;7386786;19;20129;-76
2022/04/28 08:22:10;;;;;;;10.63;9.53;;;;;;;;;;7388603;19;20146;-76
2022/04/28 08:24:36;;;;;;;74.73;14.00;;;;;;;;;;7385497;19;20169;-78
2022/04/28 08:27:02;;;;;;;13.17;9.77;;;;;;;;;;7387920;19;20117;-77
2022/04/28 08:29:28;;;;;;;9.50;8.60;;;;;;;;;;7382021;19;20247;-77
2022/04/28 08:31:54;;;;;;;9.73;8.73;;;;;;;;;;7387997;19;20216;-77
2022/04/28 08:34:22;;;;;;;10.20;9.20;;;;;;;;;;7376862;19;20682;-77
2022/04/28 08:36:48;;;;;;;11.47;10.27;;;;;;;;;;7388299;19;20224;-77
2022/04/28 08:39:15;;;;;;;10.17;8.97;;;;;;;;;;7386538;19;20137;-77
2022/04/28 08:41:45;;;;;;;10.43;8.87;;;;;;;;;;7385576;19;20141;-77
2022/04/28 08:44:18;;;;;;;11.90;9.40;;;;;;;;;;7418896;19;20164;-78
2022/04/28 08:46:51;;;;;;;10.73;9.20;;;;;;;;;;7421234;19;20121;-78
2022/04/28 08:49:22;;;;;;;10.53;9.43;;;;;;;;;;7419276;19;20129;-78
2022/04/28 08:51:50;;;;;;;10.63;9.37;;;;;;;;;;7414796;19;20137;-77
2022/04/28 08:54:16;;;;;;;10.33;9.40;;;;;;;;;;7386299;19;20137;-77
2022/04/28 08:56:42;;;;;;;10.50;9.40;;;;;;;;;;7379527;19;20133;-76
2022/04/28 08:59:08;;;;;;;9.83;8.80;;;;;;;;;;7383423;19;20129;-77
2022/04/28 09:01:34;;;;;;;9.73;8.73;;;;;;;;;;7384567;19;20204;-76
